< < Back
Terminal Aerodrome Forecast


Current Version              Previous Versions:   1  2  3  4  5  6  7  8  9  

Terminal Aerodrome Forecast

043
FTUS42 KILM 250100 AAA
TAFILM
TAF AMD
KILM 250103Z 2501/2524 VRB05KT P6SM VCTS SCT040CB BKN120
      TEMPO 2501/2504 VRB30KT 2SM +TSRA BKN015CB
     FM250500 26003KT P6SM VCSH SCT050 BKN100
     FM251300 34005KT P6SM SCT050 SCT100
     FM251800 15006KT P6SM VCTS BKN050CB=

Latest METAR

656
SAUS70 KWBC 250300 RRH
MTRILM
METAR KILM 250253Z AUTO 19008KT 8SM -TSRA SCT034 BKN070 BKN095 23/22
A2990 RMK AO2 WSHFT 0217 LTG DSNT ALQDS TSE22B24 SLP124 P0042
60086 T02280217 53002 $


USA.gov is the U.S. government's official web portal to all federal, state and local government web resources and services.